Time;durP1;ratioP1;P1;durP2;ratioP2;P2;SDS_P1;SDS_P2;PMS_P1;PMS_P2;Temp;Humidity;BMP_temperature;BMP_pressure;BME280_temperature;BME280_humidity;BME280_pressure;Samples;Min_cycle;Max_cycle;Signal;HPM_P1;HPM_P2
2022/05/26 00:00:34;;;;;;;28.65;7.07;;;;;;;17.85;67.99;100607.88;5011325;28;119581;-74
2022/05/26 00:03:00;;;;;;;32.05;7.38;;;;;;;17.90;67.98;100617.47;5011356;28;121121;-74
2022/05/26 00:05:27;;;;;;;37.17;7.00;;;;;;;17.89;67.90;100604.88;5012746;28;120182;-74
2022/05/26 00:07:53;;;;;;;31.40;6.47;;;;;;;17.88;67.93;100603.34;4994956;28;120005;-74
2022/05/26 00:10:20;;;;;;;36.80;6.78;;;;;;;17.90;67.98;100603.59;4991466;28;122672;-75
2022/05/26 00:12:46;;;;;;;32.60;6.57;;;;;;;17.90;68.08;100606.38;4978826;28;121169;-74
2022/05/26 00:15:13;;;;;;;30.80;6.88;;;;;;;17.87;67.92;100604.63;5012320;28;119366;-75
2022/05/26 00:17:39;;;;;;;26.13;6.35;;;;;;;17.87;67.84;100602.59;5007696;28;119397;-74
2022/05/26 00:20:06;;;;;;;30.30;6.22;;;;;;;17.85;67.68;100610.66;5004566;28;119752;-74
2022/05/26 00:22:32;;;;;;;29.77;5.72;;;;;;;17.87;67.89;100608.16;5011418;27;119463;-75
2022/05/26 00:24:58;;;;;;;36.47;6.75;;;;;;;17.88;67.62;100606.13;5012665;28;119361;-75
2022/05/26 00:27:23;;;;;;;31.35;6.95;;;;;;;17.89;67.55;100604.88;4983751;28;121067;-76
2022/05/26 00:29:49;;;;;;;30.90;6.45;;;;;;;17.88;67.81;100609.66;4991348;28;120169;-73
2022/05/26 00:32:15;;;;;;;32.22;6.55;;;;;;;17.92;67.71;100609.41;4995926;28;119663;-74
2022/05/26 00:34:40;;;;;;;39.03;7.35;;;;;;;17.91;67.65;100597.56;4991569;28;119989;-74
2022/05/26 00:37:08;;;;;;;37.20;7.07;;;;;;;17.88;67.41;100603.34;4998143;28;119270;-74
2022/05/26 00:39:33;;;;;;;37.15;7.00;;;;;;;17.87;67.29;100601.84;4998268;28;119440;-74
2022/05/26 00:42:01;;;;;;;33.92;6.13;;;;;;;17.84;67.55;100603.59;5012027;27;119990;-74
2022/05/26 00:44:28;;;;;;;32.78;6.53;;;;;;;17.85;67.26;100596.03;5010362;28;119775;-74
2022/05/26 00:47:01;;;;;;;35.00;5.95;;;;;;;17.85;67.18;100594.03;5000937;28;119447;-74
2022/05/26 00:49:58;;;;;;;29.65;6.07;;;;;;;17.86;67.37;100605.88;5006762;28;120556;-74
2022/05/26 00:52:35;;;;;;;33.60;6.57;;;;;;;17.85;67.31;100604.34;4961561;28;119700;-75
2022/05/26 00:55:08;;;;;;;27.88;5.80;;;;;;;17.77;67.24;100604.09;4979299;28;121742;-74
2022/05/26 00:57:46;;;;;;;30.15;6.15;;;;;;;17.80;67.46;100592.00;5012308;28;120061;-74
2022/05/26 01:00:16;;;;;;;30.55;5.75;;;;;;;17.78;67.34;100602.84;4993795;28;120689;-74
2022/05/26 01:02:47;;;;;;;37.55;6.18;;;;;;;17.77;67.54;100604.88;5011418;27;119895;-74
2022/05/26 01:05:21;;;;;;;35.85;6.63;;;;;;;17.77;67.23;100607.63;5010847;28;119993;-74
2022/05/26 01:07:48;;;;;;;30.45;6.05;;;;;;;17.75;67.46;100614.94;4993506;28;119837;-75
2022/05/26 01:10:15;;;;;;;29.65;6.13;;;;;;;17.73;67.66;100604.31;4993278;28;121827;-74
2022/05/26 01:12:41;;;;;;;30.02;6.10;;;;;;;17.69;67.23;100614.91;5011061;28;119743;-75
2022/05/26 01:15:15;;;;;;;29.52;5.65;;;;;;;17.70;67.31;100616.44;4997207;28;121038;-74
2022/05/26 01:17:49;;;;;;;33.05;6.05;;;;;;;17.69;67.35;100617.69;4992938;28;119438;-75
2022/05/26 01:20:27;;;;;;;35.78;6.18;;;;;;;17.69;67.22;100623.25;5009905;28;120139;-75
2022/05/26 01:23:11;;;;;;;34.10;5.70;;;;;;;17.69;67.07;100619.72;4992682;28;121219;-75
2022/05/26 01:25:47;;;;;;;;;;;;;;;17.63;66.89;100632.78;4990415;28;120208;-74
2022/05/26 01:28:34;;;;;;;31.48;5.65;;;;;;;17.63;66.72;100622.44;4993890;27;119412;-75
2022/05/26 01:31:38;;;;;;;31.02;5.18;;;;;;;17.60;66.72;100625.47;4997403;28;120149;-74
2022/05/26 01:34:10;;;;;;;34.25;5.82;;;;;;;17.57;67.00;100635.53;5002335;27;119808;-75
2022/05/26 01:36:54;;;;;;;33.15;6.05;;;;;;;17.57;67.01;100632.78;4987165;28;119503;-74
2022/05/26 01:39:43;;;;;;;34.55;6.25;;;;;;;17.56;66.78;100628.47;5008698;27;120536;-74
2022/05/26 01:42:20;;;;;;;25.70;5.32;;;;;;;17.58;66.98;100637.06;4954331;27;119989;-74
2022/05/26 01:44:52;;;;;;;30.42;5.45;;;;;;;17.56;66.72;100633.28;4992344;28;119787;-74
2022/05/26 01:47:36;;;;;;;32.22;6.03;;;;;;;17.55;66.60;100649.16;5010260;28;119746;-73
2022/05/26 01:50:14;;;;;;;26.45;5.45;;;;;;;17.51;66.48;100645.88;4993408;28;119938;-75
2022/05/26 01:52:49;;;;;;;26.33;5.30;;;;;;;17.50;66.74;100647.84;5009404;28;119601;-74
2022/05/26 01:55:21;;;;;;;29.42;5.43;;;;;;;17.49;66.61;100648.34;5011396;28;119376;-74
2022/05/26 01:57:58;;;;;;;29.63;5.10;;;;;;;17.48;66.40;100639.28;5011090;28;119443;-74
2022/05/26 02:00:25;;;;;;;35.85;6.25;;;;;;;17.47;66.40;100645.31;5009089;28;120205;-74
2022/05/26 02:03:01;;;;;;;31.17;5.57;;;;;;;17.45;66.49;100639.53;4980290;28;119849;-76
2022/05/26 02:05:31;;;;;;;31.40;5.80;;;;;;;17.43;66.34;100653.13;4992581;28;120955;-74
2022/05/26 02:08:04;;;;;;;32.25;5.88;;;;;;;17.37;66.55;100649.59;4975859;28;119645;-74
2022/05/26 02:10:44;;;;;;;33.43;5.00;;;;;;;17.36;66.51;100643.28;5009378;28;119467;-75
2022/05/26 02:13:13;;;;;;;26.83;5.18;;;;;;;17.37;66.67;100642.03;5009810;28;121850;-76
2022/05/26 02:15:47;;;;;;;34.15;5.75;;;;;;;17.37;66.47;100646.81;5010764;28;119537;-74
2022/05/26 02:18:20;;;;;;;37.42;5.30;;;;;;;17.36;66.53;100653.63;5009482;28;119724;-74
2022/05/26 02:20:45;;;;;;;26.25;5.13;;;;;;;17.35;66.55;100646.56;5004795;28;119878;-75
2022/05/26 02:23:26;;;;;;;25.35;4.63;;;;;;;17.37;66.38;100652.34;5007265;27;119555;-73
2022/05/26 02:25:53;;;;;;;25.63;4.85;;;;;;;17.36;66.59;100656.38;4995174;28;121415;-75
2022/05/26 02:28:19;;;;;;;30.95;5.63;;;;;;;17.34;66.51;100656.13;4992371;28;119500;-75
2022/05/26 02:30:47;;;;;;;25.85;4.78;;;;;;;17.34;66.40;100659.66;5003975;28;119766;-75
2022/05/26 02:33:17;;;;;;;25.33;4.55;;;;;;;17.31;66.23;100668.22;4987750;28;121733;-74
2022/05/26 02:35:46;;;;;;;24.45;4.43;;;;;;;17.28;66.29;100663.66;5008967;28;119433;-75
2022/05/26 02:38:18;;;;;;;23.77;4.90;;;;;;;17.25;66.11;100664.63;5000426;28;119369;-75
2022/05/26 02:40:45;;;;;;;24.10;4.72;;;;;;;17.27;66.80;100667.66;4999970;28;119501;-74
2022/05/26 02:43:16;;;;;;;28.58;5.35;;;;;;;17.27;66.48;100662.13;4973366;28;119593;-75
2022/05/26 02:45:59;;;;;;;30.80;5.47;;;;;;;17.29;66.81;100667.97;5012276;28;119336;-74
2022/05/26 02:48:25;;;;;;;22.48;4.22;;;;;;;17.31;66.75;100671.00;4991099;28;119886;-74
2022/05/26 02:51:34;;;;;;;28.95;4.88;;;;;;;17.32;66.41;100676.03;5008595;27;119381;-74
2022/05/26 02:54:25;;;;;;;21.73;4.55;;;;;;;17.30;66.43;100672.25;4990467;28;119963;-74
2022/05/26 02:57:00;;;;;;;26.00;4.97;;;;;;;17.29;66.30;100681.81;4976361;28;119502;-74
2022/05/26 02:59:41;;;;;;;23.42;4.43;;;;;;;17.28;66.29;100677.53;4976330;28;119606;-74
2022/05/26 03:02:19;;;;;;;33.67;5.65;;;;;;;17.27;66.32;100673.22;4989787;28;120275;-73
2022/05/26 03:04:50;;;;;;;27.80;4.40;;;;;;;17.27;66.19;100687.88;5012683;28;119670;-73
2022/05/26 03:07:22;;;;;;;31.50;5.47;;;;;;;17.25;66.33;100684.03;5014348;28;120028;-74
2022/05/26 03:09:48;;;;;;;30.67;4.82;;;;;;;17.23;66.11;100692.84;5016827;28;120096;-75
2022/05/26 03:12:28;;;;;;;30.83;5.47;;;;;;;17.22;65.99;100694.13;5013180;28;119486;-74
2022/05/26 03:14:55;;;;;;;28.17;5.00;;;;;;;17.22;66.10;100693.34;5012159;28;122876;-75
2022/05/26 03:17:21;;;;;;;29.60;4.63;;;;;;;17.21;65.79;100686.28;5013433;28;119402;-74
2022/05/26 03:19:47;;;;;;;21.67;4.60;;;;;;;17.17;65.67;100692.06;5012170;28;119913;-74
2022/05/26 03:22:13;;;;;;;19.50;4.35;;;;;;;17.16;65.89;100702.41;5011451;27;120020;-74
2022/05/26 03:24:39;;;;;;;23.05;4.65;;;;;;;17.13;66.12;100700.63;4994102;28;119443;-75
2022/05/26 03:27:05;;;;;;;26.65;4.80;;;;;;;17.14;66.07;100695.84;4994822;28;120031;-74
2022/05/26 03:29:31;;;;;;;34.92;5.07;;;;;;;17.15;66.00;100695.34;5012389;28;119855;-75
2022/05/26 03:31:56;;;;;;;27.80;4.63;;;;;;;17.13;65.65;100695.09;4978941;28;119895;-75
2022/05/26 03:42:42;;;;;;;20.35;4.25;;;;;;;17.07;65.58;100705.38;5012290;27;120113;-74
2022/05/26 03:45:09;;;;;;;18.33;3.85;;;;;;;17.04;65.71;100691.75;5012042;28;119487;-75
2022/05/26 03:47:34;;;;;;;19.48;3.53;;;;;;;17.04;65.28;100711.91;4999804;28;118988;-74
2022/05/26 03:50:00;;;;;;;20.17;4.32;;;;;;;17.05;65.08;100701.59;4974334;28;121877;-74
2022/05/26 03:52:26;;;;;;;25.15;4.00;;;;;;;17.04;64.85;100703.59;5006904;27;119393;-74
2022/05/26 03:54:52;;;;;;;20.30;3.70;;;;;;;17.04;65.21;100695.28;5015528;28;119691;-74
2022/05/26 03:57:25;;;;;;;22.63;3.95;;;;;;;17.04;64.80;100695.28;4978762;28;119680;-75
2022/05/26 03:59:51;;;;;;;22.83;4.20;;;;;;;17.06;64.58;100694.81;5011581;28;120317;-74
2022/05/26 04:02:17;;;;;;;22.55;3.90;;;;;;;17.04;63.74;100702.84;4993819;27;121448;-74
2022/05/26 04:04:42;;;;;;;20.98;4.05;;;;;;;17.00;63.70;100702.28;4993812;28;119495;-74
2022/05/26 04:07:08;;;;;;;23.33;3.75;;;;;;;16.99;64.02;100709.84;5008556;28;119366;-74
2022/05/26 04:09:34;;;;;;;22.60;4.00;;;;;;;17.02;64.01;100714.41;5012459;28;119439;-75
2022/05/26 04:11:59;;;;;;;22.52;4.10;;;;;;;17.03;63.37;100715.91;5012784;27;119336;-74
2022/05/26 04:14:25;;;;;;;25.75;4.70;;;;;;;17.03;63.89;100717.94;5007391;28;119740;-74
2022/05/26 04:16:51;;;;;;;17.63;4.07;;;;;;;16.99;64.19;100720.94;4998591;28;119444;-75
2022/05/26 04:19:16;;;;;;;24.63;4.30;;;;;;;17.02;63.73;100719.94;5012681;28;119399;-76
2022/05/26 04:22:27;;;;;;;21.42;3.58;;;;;;;17.01;63.76;100721.19;5003659;28;120126;-74
2022/05/26 04:24:28;;;;;;;18.48;3.58;;;;;;;17.04;63.23;100734.09;4983119;28;119773;-74
2022/05/26 04:26:57;;;;;;;19.75;3.83;;;;;;;17.08;63.07;100737.38;4988457;28;119434;-74
2022/05/26 04:29:23;;;;;;;18.50;3.50;;;;;;;17.06;63.42;100742.66;4991861;28;120697;-74
2022/05/26 04:31:50;;;;;;;18.15;3.45;;;;;;;17.06;63.64;100750.97;4991393;28;119881;-74
2022/05/26 04:34:17;;;;;;;24.00;3.78;;;;;;;17.01;63.29;100737.06;4995454;28;119936;-74
2022/05/26 04:36:43;;;;;;;20.20;4.00;;;;;;;17.02;63.45;100755.97;5008658;28;120193;-74
2022/05/26 04:39:08;;;;;;;24.63;4.22;;;;;;;17.00;63.43;100750.16;5016260;28;119621;-74
2022/05/26 04:41:34;;;;;;;19.08;3.85;;;;;;;17.03;63.44;100763.03;5010750;28;119337;-74
2022/05/26 04:44:00;;;;;;;19.52;3.75;;;;;;;17.05;63.39;100754.25;4993699;28;120021;-74
2022/05/26 04:46:26;;;;;;;20.40;4.07;;;;;;;17.07;62.97;100760.06;5011015;28;119916;-74
2022/05/26 04:48:52;;;;;;;21.08;3.88;;;;;;;17.08;63.33;100761.56;4991959;28;120224;-74
2022/05/26 04:51:18;;;;;;;26.35;4.93;;;;;;;17.11;62.16;100766.88;5012192;28;119663;-74
2022/05/26 04:53:44;;;;;;;21.95;4.13;;;;;;;17.11;62.74;100772.44;5011866;28;120340;-75
2022/05/26 04:56:10;;;;;;;21.52;3.55;;;;;;;17.10;62.80;100773.69;4993290;28;120088;-76
2022/05/26 04:58:36;;;;;;;21.25;4.05;;;;;;;17.14;62.47;100781.75;5011393;28;119498;-75
2022/05/26 05:01:14;;;;;;;21.75;3.70;;;;;;;17.17;62.69;100776.00;5010850;28;119891;-74
2022/05/26 05:03:40;;;;;;;23.70;4.15;;;;;;;17.18;62.61;100779.50;5010506;28;119325;-74
2022/05/26 05:06:05;;;;;;;23.00;3.80;;;;;;;17.16;63.09;100774.47;4993440;28;119602;-74
2022/05/26 05:08:31;;;;;;;19.98;3.85;;;;;;;17.17;62.96;100786.31;5011041;28;119853;-74
2022/05/26 05:10:57;;;;;;;17.05;3.45;;;;;;;17.19;63.21;100792.88;5011656;28;119335;-75
2022/05/26 05:13:24;;;;;;;19.90;3.97;;;;;;;17.19;62.94;100786.56;4993818;28;120216;-75
2022/05/26 05:16:27;;;;;;;19.05;3.53;;;;;;;17.26;62.55;100796.44;4990459;28;121379;-74
2022/05/26 05:18:54;;;;;;;18.50;3.35;;;;;;;17.25;62.58;100794.94;4993076;28;119661;-74
2022/05/26 05:21:27;;;;;;;21.90;4.13;;;;;;;17.24;61.74;100805.25;5014959;28;119396;-74
2022/05/26 05:23:58;;;;;;;25.55;4.30;;;;;;;17.21;61.78;100811.03;5010355;28;119439;-74
2022/05/26 05:26:28;;;;;;;19.80;3.92;;;;;;;17.19;61.78;100817.81;4992427;28;119590;-74
2022/05/26 05:29:01;;;;;;;24.83;4.15;;;;;;;17.22;62.10;100807.00;5009942;28;120605;-74
2022/05/26 05:31:37;;;;;;;19.30;3.22;;;;;;;17.27;62.71;100803.50;4991442;28;119566;-74
2022/05/26 05:34:10;;;;;;;21.33;3.75;;;;;;;17.33;62.45;100801.56;5009593;27;119934;-74
2022/05/26 05:36:38;;;;;;;22.05;4.30;;;;;;;17.36;61.95;100814.44;5009876;28;119959;-74
2022/05/26 05:39:04;;;;;;;18.83;3.63;;;;;;;17.36;62.42;100817.97;5009710;28;119885;-74
2022/05/26 05:41:33;;;;;;;24.38;4.00;;;;;;;17.42;62.82;100817.97;5010114;28;119868;-75
2022/05/26 05:44:00;;;;;;;23.48;4.10;;;;;;;17.47;61.92;100812.47;4992678;28;121250;-74
2022/05/26 05:46:34;;;;;;;20.17;3.85;;;;;;;17.53;61.79;100811.75;5010573;28;119906;-74
2022/05/26 05:49:02;;;;;;;25.73;4.03;;;;;;;17.52;61.54;100830.41;5006237;28;119350;-74
2022/05/26 05:51:28;;;;;;;19.38;3.85;;;;;;;17.52;61.79;100824.88;5009742;27;119753;-75
2022/05/26 05:53:55;;;;;;;23.63;4.10;;;;;;;17.54;61.57;100825.13;4988691;28;120585;-75
2022/05/26 05:56:20;;;;;;;19.67;3.88;;;;;;;17.57;61.66;100826.91;5009644;28;119997;-75
2022/05/26 05:58:46;;;;;;;23.45;3.65;;;;;;;17.61;61.45;100830.22;5010164;28;119439;-74
2022/05/26 06:01:11;;;;;;;23.58;3.85;;;;;;;17.69;61.60;100841.63;4992090;28;120762;-76
2022/05/26 06:03:39;;;;;;;21.25;3.90;;;;;;;17.71;61.20;100834.31;5007937;28;120110;-74
2022/05/26 06:06:07;;;;;;;19.20;3.50;;;;;;;17.72;61.03;100846.94;5012513;28;120154;-74
2022/05/26 06:08:37;;;;;;;23.40;4.35;;;;;;;17.71;60.94;100845.41;5009163;28;119521;-76
2022/05/26 06:11:06;;;;;;;21.83;4.30;;;;;;;17.64;60.56;100854.19;4990523;28;119605;-74
2022/05/26 06:13:32;;;;;;;22.67;3.90;;;;;;;17.61;60.62;100835.00;4992301;28;121355;-74
2022/05/26 06:15:57;;;;;;;21.15;3.90;;;;;;;17.65;60.33;100843.84;4991847;28;119422;-76
2022/05/26 06:18:23;;;;;;;19.45;4.18;;;;;;;17.67;59.83;100856.00;5009705;28;119654;-76
2022/05/26 06:20:49;;;;;;;24.88;4.55;;;;;;;17.69;59.57;100858.25;5009555;28;119948;-74
2022/05/26 06:23:17;;;;;;;15.80;3.53;;;;;;;17.71;59.98;100862.06;5009499;28;119794;-74
2022/05/26 06:25:43;;;;;;;16.10;3.55;;;;;;;17.69;60.55;100859.03;4992272;28;119793;-74
2022/05/26 06:30:54;;;;;;;18.05;4.00;;;;;;;17.75;59.49;100868.16;4963500;28;119828;-75
2022/05/26 06:38:49;;;;;;;20.85;3.70;;;;;;;17.79;59.30;100865.91;4985302;28;119830;-75
2022/05/26 06:44:03;;;;;;;17.52;3.65;;;;;;;17.77;58.88;100887.84;4998103;28;119536;-75
2022/05/26 06:46:29;;;;;;;20.48;3.67;;;;;;;17.77;58.72;100882.28;5008706;28;119567;-77
2022/05/26 06:48:55;;;;;;;22.17;4.18;;;;;;;17.81;58.16;100889.63;4990929;28;120793;-76
2022/05/26 06:51:26;;;;;;;19.10;4.03;;;;;;;17.83;59.05;100890.66;5011853;28;120484;-75
2022/05/26 06:53:55;;;;;;;19.17;4.03;;;;;;;17.82;59.03;100886.34;4989094;28;119749;-75
2022/05/26 06:56:21;;;;;;;23.45;3.92;;;;;;;17.91;58.99;100902.03;5008606;28;120106;-75
2022/05/26 06:58:49;;;;;;;20.92;3.50;;;;;;;17.92;59.31;100907.09;5007368;28;120255;-74
2022/05/26 07:01:15;;;;;;;23.67;4.18;;;;;;;17.94;58.08;100906.59;5009480;28;119565;-75
2022/05/26 07:03:42;;;;;;;19.33;3.65;;;;;;;17.95;58.11;100902.56;5008683;27;119452;-75
2022/05/26 07:06:23;;;;;;;18.65;3.30;;;;;;;17.95;57.86;100908.09;5003539;28;119849;-75
2022/05/26 07:08:49;;;;;;;21.13;3.72;;;;;;;17.92;58.02;100904.31;4984152;28;119554;-77
2022/05/26 07:11:17;;;;;;;21.00;3.65;;;;;;;17.93;58.34;100916.94;4980167;28;123415;-75
2022/05/26 07:13:43;;;;;;;15.38;3.25;;;;;;;17.95;58.66;100902.56;5006819;28;119749;-75
2022/05/26 07:16:10;;;;;;;15.90;3.65;;;;;;;18.01;58.65;100914.47;4987114;28;123010;-75
2022/05/26 07:18:37;;;;;;;19.48;3.88;;;;;;;18.06;58.15;100913.72;4985896;28;119830;-75
2022/05/26 07:21:06;;;;;;;14.75;3.22;;;;;;;18.06;57.75;100911.72;4988674;28;120031;-75
2022/05/26 07:23:32;;;;;;;22.63;3.42;;;;;;;18.11;58.22;100918.53;5004265;28;121364;-74
2022/05/26 07:25:57;;;;;;;16.50;3.40;;;;;;;18.14;58.54;100914.00;4971863;28;119939;-76
2022/05/26 07:28:23;;;;;;;18.50;3.40;;;;;;;18.17;58.37;100930.44;4993395;28;119888;-75
2022/05/26 07:30:49;;;;;;;19.48;3.22;;;;;;;18.20;58.37;100923.88;4993559;28;119426;-75
2022/05/26 07:33:15;;;;;;;19.33;3.72;;;;;;;18.25;57.72;100928.72;5010105;27;119806;-74
2022/05/26 07:35:41;;;;;;;14.82;3.05;;;;;;;18.29;57.72;100932.03;5008202;28;120063;-75
2022/05/26 07:41:17;;;;;;;21.23;3.67;;;;;;;18.29;57.20;100939.59;4937578;28;119850;-75
2022/05/26 07:43:54;;;;;;;19.58;3.80;;;;;;;18.28;56.33;100930.50;4993487;28;121556;-77
2022/05/26 07:46:23;;;;;;;14.82;3.45;;;;;;;18.29;56.52;100937.56;5011030;28;119996;-75
2022/05/26 07:48:49;;;;;;;18.00;3.22;;;;;;;18.31;56.56;100951.72;4995060;28;121160;-75
2022/05/26 07:51:16;;;;;;;12.18;2.83;;;;;;;18.25;56.52;100931.50;4983951;28;120015;-76
2022/05/26 07:53:41;;;;;;;15.05;3.33;;;;;;;18.30;57.16;100939.09;5012072;28;119613;-75
2022/05/26 07:56:10;;;;;;;14.45;3.13;;;;;;;18.38;56.88;100940.13;4994154;28;119936;-75
2022/05/26 07:58:35;;;;;;;14.70;3.15;;;;;;;18.41;56.68;100944.69;4992237;28;119853;-75
2022/05/26 08:01:03;;;;;;;16.77;3.20;;;;;;;18.46;56.10;100945.22;5012357;28;119552;-76
2022/05/26 08:03:30;;;;;;;22.80;3.38;;;;;;;18.47;56.14;100947.50;5008979;28;121118;-76
2022/05/26 08:05:56;;;;;;;17.00;3.40;;;;;;;18.56;56.22;100958.41;5012867;28;119490;-75
2022/05/26 08:08:22;;;;;;;14.43;2.80;;;;;;;18.63;55.12;100962.75;4994868;28;120783;-75
2022/05/26 08:10:48;;;;;;;14.15;3.40;;;;;;;18.61;54.52;100962.44;4989284;28;120094;-75
2022/05/26 08:13:17;;;;;;;15.82;3.20;;;;;;;18.65;54.99;100971.31;5011754;27;119609;-75
2022/05/26 08:15:42;;;;;;;15.20;2.80;;;;;;;18.65;54.66;100976.88;4992849;28;119657;-74
2022/05/26 08:18:08;;;;;;;12.82;2.88;;;;;;;18.62;54.18;100964.75;4997747;28;119980;-75
2022/05/26 08:20:35;;;;;;;11.32;2.60;;;;;;;18.62;54.84;100978.66;5010392;28;119954;-78
2022/05/26 08:23:01;;;;;;;13.95;2.60;;;;;;;18.62;54.76;100969.53;4993775;28;120368;-75
2022/05/26 08:25:29;;;;;;;13.15;2.80;;;;;;;18.68;54.93;100964.78;5011778;28;119447;-75
2022/05/26 08:27:55;;;;;;;12.18;2.53;;;;;;;18.72;54.72;100990.31;4994268;28;119433;-76
2022/05/26 08:30:20;;;;;;;12.02;2.47;;;;;;;18.83;53.77;100981.25;5008617;28;119541;-75
2022/05/26 08:32:46;;;;;;;15.35;2.53;;;;;;;18.90;53.34;100989.84;5010390;28;119526;-76
2022/05/26 08:35:12;;;;;;;17.33;2.95;;;;;;;19.07;52.17;100989.16;5012322;28;119365;-75
2022/05/26 08:37:38;;;;;;;12.80;2.63;;;;;;;19.20;52.08;101006.13;5010542;28;121865;-75
2022/05/26 08:40:05;;;;;;;11.88;2.47;;;;;;;19.25;52.78;101003.34;5014113;28;119900;-75
2022/05/26 08:42:34;;;;;;;13.18;2.65;;;;;;;19.33;52.76;101000.81;5010349;28;119619;-75
2022/05/26 08:45:07;;;;;;;11.65;2.20;;;;;;;19.39;51.98;100998.81;5011325;28;119782;-75
2022/05/26 08:47:40;;;;;;;9.52;1.83;;;;;;;19.44;52.27;101002.88;4992548;28;119561;-75
2022/05/26 08:50:24;;;;;;;9.18;2.30;;;;;;;19.42;51.45;101002.63;4992017;28;120018;-75
2022/05/26 08:52:49;;;;;;;11.30;2.77;;;;;;;19.37;51.63;101015.25;5009375;27;119480;-76
2022/05/26 08:55:30;;;;;;;13.35;2.30;;;;;;;19.26;50.73;101016.00;4993973;28;119769;-76
2022/05/26 08:58:25;;;;;;;11.43;2.70;;;;;;;19.20;50.96;101015.22;4990989;28;120098;-77
2022/05/26 09:00:52;;;;;;;8.68;1.92;;;;;;;19.24;52.29;101007.41;4984651;28;121641;-75
2022/05/26 09:03:25;;;;;;;11.93;2.15;;;;;;;19.33;52.29;101021.06;5014367;28;120113;-75
2022/05/26 09:06:00;;;;;;;12.30;2.33;;;;;;;19.33;51.83;101015.50;5009126;28;119547;-75
2022/05/26 09:14:05;;;;;;;10.23;2.05;;;;;;;19.34;50.72;101027.38;4988923;28;119453;-75
2022/05/26 09:16:34;;;;;;;9.02;2.08;;;;;;;19.29;50.99;101048.34;5006578;28;119577;-75
2022/05/26 09:19:13;;;;;;;10.60;2.15;;;;;;;19.27;51.54;101044.56;4987778;28;121979;-77
2022/05/26 09:21:40;;;;;;;11.38;2.15;;;;;;;19.31;50.99;101042.28;4993229;28;119710;-76
2022/05/26 09:24:18;;;;;;;12.93;2.53;;;;;;;19.32;50.58;101035.47;5013561;28;119579;-75
2022/05/26 09:27:23;;;;;;;8.85;1.90;;;;;;;19.31;50.19;101045.84;5005385;28;119477;-75
2022/05/26 09:29:49;;;;;;;10.48;2.28;;;;;;;19.27;50.00;101056.44;4962708;28;119707;-74
2022/05/26 09:32:17;;;;;;;10.05;2.00;;;;;;;19.31;49.27;101064.53;5010254;27;120136;-75
2022/05/26 09:35:00;;;;;;;10.52;2.30;;;;;;;19.27;50.05;101056.44;5006083;27;119447;-76
2022/05/26 09:37:53;;;;;;;10.20;2.00;;;;;;;19.32;49.98;101052.91;5003846;28;119478;-74
2022/05/26 09:40:25;;;;;;;11.48;2.42;;;;;;;19.34;49.70;101055.19;4981691;28;120194;-77
2022/05/26 09:42:59;;;;;;;10.95;1.92;;;;;;;19.30;49.62;101057.47;5010170;27;119613;-74
2022/05/26 09:45:26;;;;;;;7.70;2.03;;;;;;;19.25;49.83;101055.44;4986196;28;120061;-73
2022/05/26 09:47:58;;;;;;;8.23;2.35;;;;;;;19.21;50.34;101068.81;5009906;28;121285;-75
2022/05/26 09:50:32;;;;;;;8.07;1.77;;;;;;;19.19;50.01;101072.09;4987685;28;121843;-76
2022/05/26 09:53:00;;;;;;;9.05;1.80;;;;;;;19.14;49.47;101069.28;5004895;27;119594;-74
2022/05/26 09:55:29;;;;;;;12.88;1.85;;;;;;;19.12;49.24;101066.25;5007296;28;119887;-76
2022/05/26 09:58:11;;;;;;;11.32;2.53;;;;;;;19.11;49.61;101070.28;4982976;28;119576;-74
2022/05/26 10:00:41;;;;;;;8.80;2.05;;;;;;;19.12;49.48;101077.38;4986550;28;120022;-75
2022/05/26 10:03:25;;;;;;;11.67;2.37;;;;;;;19.12;49.80;101077.38;4997908;27;119744;-77
2022/05/26 10:05:56;;;;;;;15.57;2.58;;;;;;;19.08;49.16;101074.84;4983053;28;122226;-75
2022/05/26 10:08:34;;;;;;;11.48;2.30;;;;;;;19.06;50.09;101080.13;5005593;28;119525;-75
2022/05/26 10:11:09;;;;;;;13.98;2.50;;;;;;;19.04;50.77;101081.91;5010610;27;120107;-74
2022/05/26 10:13:50;;;;;;;11.13;2.35;;;;;;;19.01;49.26;101086.44;5004083;28;119655;-74
2022/05/26 10:16:25;;;;;;;8.63;1.90;;;;;;;18.91;50.12;101083.09;5004083;27;119988;-74
2022/05/26 10:18:57;;;;;;;11.10;2.55;;;;;;;18.90;50.14;101089.91;5006407;28;120083;-75
2022/05/26 10:21:50;;;;;;;11.75;3.05;;;;;;;18.90;50.13;101089.91;5005449;28;119787;-75
2022/05/26 10:24:29;;;;;;;9.57;2.25;;;;;;;18.90;50.67;101081.56;4991852;28;120564;-74
2022/05/26 10:27:20;;;;;;;10.52;2.28;;;;;;;18.94;49.12;101101.59;5005497;28;119847;-74
2022/05/26 10:30:13;;;;;;;7.30;1.70;;;;;;;18.97;48.92;101111.72;4998472;28;119860;-76
2022/05/26 10:33:01;;;;;;;10.50;1.90;;;;;;;19.01;48.95;101103.13;4989041;28;119581;-75
2022/05/26 10:35:31;;;;;;;11.48;2.35;;;;;;;19.05;48.54;101097.31;5010083;28;119558;-74
2022/05/26 10:38:14;;;;;;;7.40;1.75;;;;;;;19.08;48.60;101104.66;4996429;28;119767;-73
2022/05/26 10:41:01;;;;;;;8.77;1.77;;;;;;;19.16;47.33;101122.38;5006608;28;119764;-75
2022/05/26 10:43:47;;;;;;;11.05;1.63;;;;;;;19.19;47.22;101099.91;5005637;28;121630;-74
2022/05/26 10:46:14;;;;;;;9.18;1.95;;;;;;;19.16;46.46;101105.69;4993618;28;119847;-74
2022/05/26 10:48:53;;;;;;;12.50;2.17;;;;;;;19.13;46.97;101106.69;4975592;28;120626;-74
2022/05/26 10:51:24;;;;;;;11.10;2.00;;;;;;;19.19;48.18;101107.50;5008531;28;121344;-74
2022/05/26 10:54:15;;;;;;;9.70;2.28;;;;;;;19.24;48.22;101115.84;5003135;27;119883;-75
2022/05/26 10:56:59;;;;;;;10.23;2.00;;;;;;;19.27;48.25;101125.97;4976027;28;120613;-75
2022/05/26 10:59:40;;;;;;;9.85;2.10;;;;;;;19.26;47.71;101104.22;4977565;28;122294;-75
2022/05/26 11:02:30;;;;;;;8.65;2.30;;;;;;;19.17;47.50;101110.03;5006895;28;119543;-76
2022/05/26 11:05:08;;;;;;;13.10;2.10;;;;;;;19.09;47.43;101106.19;4990544;28;120136;-74
2022/05/26 11:07:43;;;;;;;11.07;2.00;;;;;;;19.03;47.88;101097.81;4988638;28;120009;-76
2022/05/26 11:10:13;;;;;;;12.30;2.65;;;;;;;19.09;47.89;101106.94;4989565;28;120671;-74
2022/05/26 11:12:42;;;;;;;9.25;2.15;;;;;;;19.12;48.89;101119.06;4991083;28;123718;-75
2022/05/26 11:18:28;;;;;;;9.90;1.92;;;;;;;19.11;47.03;101115.53;5012457;28;120137;-74
2022/05/26 11:20:56;;;;;;;10.65;1.85;;;;;;;19.11;47.48;101120.34;4994260;28;120723;-75
2022/05/26 11:23:23;;;;;;;5.18;1.52;;;;;;;19.12;47.24;101110.75;5010610;27;119598;-74
2022/05/26 11:26:11;;;;;;;9.57;2.03;;;;;;;19.12;46.16;101119.84;5010236;28;119616;-76
2022/05/26 11:28:47;;;;;;;4.38;1.67;;;;;;;19.12;46.61;101130.19;4989203;28;119707;-76
2022/05/26 11:37:27;;;;;;;6.30;1.40;;;;;;;19.25;45.64;101130.53;5010040;28;119491;-74
2022/05/26 11:39:58;;;;;;;6.70;1.40;;;;;;;19.22;44.89;101142.66;4998997;28;119756;-74
2022/05/26 11:42:35;;;;;;;9.77;1.80;;;;;;;19.19;45.31;101160.34;5008915;28;120297;-74
2022/05/26 11:45:13;;;;;;;11.68;2.05;;;;;;;19.12;45.49;101149.66;5012988;28;120039;-74
2022/05/26 11:47:48;;;;;;;8.43;1.90;;;;;;;19.09;46.22;101145.09;5012001;28;119906;-75
2022/05/26 11:50:46;;;;;;;9.55;2.17;;;;;;;19.09;46.53;101139.53;5013788;27;119986;-75
2022/05/26 11:53:34;;;;;;;14.38;2.33;;;;;;;19.09;47.64;101139.53;4996178;28;119797;-75
2022/05/26 11:56:23;;;;;;;11.43;2.47;;;;;;;19.13;47.81;101148.41;4997894;28;119450;-74
2022/05/26 11:59:42;;;;;;;12.90;2.30;;;;;;;19.21;48.76;101141.13;4985314;28;119568;-74
2022/05/26 12:02:07;;;;;;;10.48;2.45;;;;;;;19.25;48.50;101150.75;5008321;27;119597;-74
2022/05/26 12:04:45;;;;;;;12.63;2.28;;;;;;;19.29;48.63;101158.84;5012213;28;120015;-74
2022/05/26 12:07:18;;;;;;;11.82;2.75;;;;;;;19.26;47.76;101159.84;5013140;28;119564;-74